Time;durP1;ratioP1;P1;durP2;ratioP2;P2;SDS_P1;SDS_P2;PMS_P1;PMS_P2;Temp;Humidity;BMP_temperature;BMP_pressure;BME280_temperature;BME280_humidity;BME280_pressure;Samples;Min_cycle;Max_cycle;Signal;HPM_P1;HPM_P2
2022/11/01 00:02:08;;;;;;;279.92;21.08;;;;;;;9.18;100.00;99380.22;4470319;32;20104;-76
2022/11/01 00:04:36;;;;;;;189.98;19.73;;;;;;;9.13;100.00;99381.50;4481975;32;20152;-76
2022/11/01 00:07:03;;;;;;;209.20;16.33;;;;;;;9.15;100.00;99379.62;4485167;31;20115;-76
2022/11/01 00:09:30;;;;;;;192.77;16.25;;;;;;;9.18;100.00;99372.38;4470300;32;20428;-76
2022/11/01 00:11:58;;;;;;;178.50;14.18;;;;;;;9.14;100.00;99377.97;4470292;32;20088;-76
2022/11/01 00:14:25;;;;;;;184.37;14.07;;;;;;;9.18;100.00;99368.94;4470268;32;20096;-76
2022/11/01 00:16:52;;;;;;;216.07;16.02;;;;;;;9.16;100.00;99378.66;4470323;32;20148;-76
2022/11/01 00:19:20;;;;;;;296.00;24.50;;;;;;;9.22;100.00;99373.00;4470330;32;20427;-76
2022/11/01 00:21:47;;;;;;;230.05;16.92;;;;;;;9.09;100.00;99377.47;4470184;32;20131;-76
2022/11/01 00:24:14;;;;;;;203.93;17.05;;;;;;;9.16;100.00;99365.59;4470203;32;20105;-76
2022/11/01 00:26:41;;;;;;;100.07;12.05;;;;;;;9.21;100.00;99371.34;4470164;32;20560;-76
2022/11/01 00:29:09;;;;;;;177.55;14.90;;;;;;;9.24;100.00;99363.25;4470092;32;20092;-76
2022/11/01 00:31:36;;;;;;;293.77;19.77;;;;;;;9.23;100.00;99367.66;4469097;32;20502;-76
2022/11/01 00:34:05;;;;;;;212.98;15.70;;;;;;;9.25;100.00;99372.78;4470097;32;20161;-76
2022/11/01 00:36:33;;;;;;;228.07;16.65;;;;;;;9.27;100.00;99363.03;4470307;32;20438;-76
2022/11/01 00:39:01;;;;;;;290.10;17.95;;;;;;;9.29;100.00;99366.38;4469839;32;20570;-76
2022/11/01 00:41:28;;;;;;;303.27;19.83;;;;;;;9.26;100.00;99363.16;4470040;32;20122;-76
2022/11/01 00:43:55;;;;;;;195.00;13.70;;;;;;;9.24;100.00;99363.25;4469988;32;20088;-76
2022/11/01 00:46:22;;;;;;;154.77;13.40;;;;;;;9.27;100.00;99357.81;4470072;32;20518;-76
2022/11/01 00:48:49;;;;;;;171.30;14.05;;;;;;;9.23;100.00;99361.59;4470059;32;20111;-76
2022/11/01 00:51:16;;;;;;;138.65;13.82;;;;;;;9.23;100.00;99357.22;4469891;32;20155;-76
2022/11/01 00:53:43;;;;;;;169.77;13.73;;;;;;;9.19;100.00;99358.38;4469962;32;20196;-76
2022/11/01 00:56:11;;;;;;;113.47;13.98;;;;;;;9.22;100.00;99350.31;4470128;32;20109;-76
2022/11/01 00:58:38;;;;;;;197.80;13.75;;;;;;;9.15;100.00;99343.03;4469831;32;20511;-76
2022/11/01 01:01:05;;;;;;;118.53;13.00;;;;;;;9.24;100.00;99339.75;4469940;32;20117;-76
2022/11/01 01:03:32;;;;;;;266.38;20.73;;;;;;;9.21;100.00;99343.41;4474572;32;20100;-76
2022/11/01 01:06:00;;;;;;;481.37;30.62;;;;;;;9.14;100.00;99330.91;4485453;31;20089;-76
2022/11/01 01:08:27;;;;;;;268.25;20.90;;;;;;;9.06;100.00;99328.88;4474814;31;20124;-76
2022/11/01 01:10:54;;;;;;;399.08;22.30;;;;;;;9.09;100.00;99343.50;4469707;32;20487;-76
2022/11/01 01:13:22;;;;;;;380.08;23.62;;;;;;;9.08;100.00;99337.41;4469857;32;20093;-76
2022/11/01 01:15:49;;;;;;;259.60;16.35;;;;;;;9.16;100.00;99337.69;4469759;32;20509;-76
2022/11/01 01:18:16;;;;;;;372.98;22.05;;;;;;;9.19;100.00;99321.78;4469740;32;20178;-76
2022/11/01 01:20:43;;;;;;;265.92;19.75;;;;;;;9.20;100.00;99317.38;4469745;32;20354;-76
2022/11/01 01:23:10;;;;;;;395.05;24.83;;;;;;;9.18;100.00;99311.44;4469769;32;20116;-76
2022/11/01 01:25:40;;;;;;;528.90;33.53;;;;;;;9.20;100.00;99320.81;4469801;32;20218;-76
2022/11/01 01:28:07;;;;;;;414.92;24.27;;;;;;;9.14;100.00;99323.88;4469689;32;20100;-76
2022/11/01 01:30:38;;;;;;;397.20;24.05;;;;;;;9.19;100.00;99326.16;4469520;32;20409;-76
2022/11/01 01:33:07;;;;;;;380.52;21.17;;;;;;;9.09;100.00;99327.81;4469485;32;20088;-76
2022/11/01 01:35:34;;;;;;;243.27;19.25;;;;;;;9.11;100.00;99323.28;4469641;32;20160;-76
2022/11/01 01:38:01;;;;;;;294.73;19.35;;;;;;;9.15;100.00;99316.91;4469690;32;20139;-76
2022/11/01 01:40:29;;;;;;;253.98;16.83;;;;;;;9.09;100.00;99305.13;4469949;32;20104;-76
2022/11/01 01:42:56;;;;;;;257.20;15.77;;;;;;;9.05;100.00;99307.13;4469614;32;20511;-76
2022/11/01 01:45:29;;;;;;;115.68;12.98;;;;;;;9.05;100.00;99321.97;4469836;32;20096;-76
2022/11/01 01:48:21;;;;;;;40.40;12.63;;;;;;;9.01;100.00;99321.38;4469758;32;20429;-76
2022/11/01 01:50:54;;;;;;;66.12;10.82;;;;;;;8.92;100.00;99319.44;4468307;32;20118;-76
2022/11/01 01:53:29;;;;;;;83.28;11.88;;;;;;;9.00;100.00;99311.03;4468270;32;20167;-76
2022/11/01 01:56:00;;;;;;;363.08;21.33;;;;;;;9.02;100.00;99303.91;4468617;32;20089;-76
2022/11/01 01:58:30;;;;;;;406.05;27.33;;;;;;;9.05;100.00;99307.13;4469503;32;20089;-76
2022/11/01 02:00:58;;;;;;;388.98;23.90;;;;;;;8.99;100.00;99304.97;4468269;32;20510;-76
2022/11/01 02:03:29;;;;;;;425.55;34.90;;;;;;;9.03;100.00;99318.62;4473161;32;20127;-76
2022/11/01 02:06:02;;;;;;;498.73;30.52;;;;;;;9.05;100.00;99312.38;4484049;32;20123;-76
2022/11/01 02:08:29;;;;;;;253.75;15.52;;;;;;;9.03;100.00;99309.00;4464077;32;20378;-76
2022/11/01 02:10:59;;;;;;;281.70;20.77;;;;;;;9.11;100.00;99302.38;4452598;32;20113;-76
2022/11/01 02:13:28;;;;;;;330.20;27.45;;;;;;;9.16;100.00;99302.88;4452544;32;20156;-76
2022/11/01 02:15:54;;;;;;;270.05;22.02;;;;;;;9.13;100.00;99297.88;4453790;32;20485;-76
2022/11/01 02:18:31;;;;;;;261.77;23.12;;;;;;;9.14;100.00;99299.53;4453765;32;20101;-76
2022/11/01 02:21:13;;;;;;;389.75;31.73;;;;;;;9.13;100.00;99293.50;4453982;32;20081;-76
2022/11/01 02:23:56;;;;;;;236.07;19.25;;;;;;;9.15;100.00;99293.38;4452525;32;20085;-76
2022/11/01 02:26:50;;;;;;;463.52;27.98;;;;;;;9.18;100.00;99293.97;4452657;32;20195;-76
2022/11/01 02:29:55;;;;;;;300.33;22.43;;;;;;;9.20;100.00;99299.06;4452427;32;20523;-76
2022/11/01 02:32:37;;;;;;;440.40;25.23;;;;;;;9.19;100.00;99295.66;4453612;32;20573;-76
2022/11/01 02:35:04;;;;;;;574.35;41.58;;;;;;;9.33;100.00;99285.94;4453630;32;20176;-76
2022/11/01 02:37:40;;;;;;;447.23;26.55;;;;;;;9.21;100.00;99282.47;4453486;32;20107;-76
2022/11/01 02:40:15;;;;;;;328.52;19.90;;;;;;;9.06;100.00;99273.97;4453558;32;20432;-76
2022/11/01 02:42:50;;;;;;;474.52;29.33;;;;;;;9.09;100.00;99276.37;4452360;32;20175;-76
2022/11/01 02:45:39;;;;;;;379.42;27.55;;;;;;;8.99;100.00;99276.22;4453676;32;20172;-76
2022/11/01 02:48:06;;;;;;;261.23;19.65;;;;;;;9.03;100.00;99272.41;4452232;32;20076;-76
2022/11/01 02:50:41;;;;;;;264.05;20.70;;;;;;;9.04;100.00;99273.28;4453323;32;20101;-76
2022/11/01 02:53:09;;;;;;;404.40;28.98;;;;;;;9.04;100.00;99279.31;4452353;32;20172;-76
2022/11/01 02:55:36;;;;;;;234.23;17.67;;;;;;;9.08;100.00;99277.31;4452211;32;20563;-76
2022/11/01 02:58:05;;;;;;;102.47;14.65;;;;;;;9.08;100.00;99279.09;4452206;32;20150;-76
2022/11/01 03:00:34;;;;;;;154.40;14.85;;;;;;;9.01;100.00;99292.63;4453439;32;20152;-76
2022/11/01 03:03:04;;;;;;;297.12;20.35;;;;;;;9.04;100.00;99287.16;4456142;32;20814;-76
2022/11/01 03:06:04;;;;;;;339.23;23.30;;;;;;;9.08;100.00;99279.09;4484898;31;20097;-76
2022/11/01 03:08:42;;;;;;;208.90;17.70;;;;;;;9.03;100.00;99277.66;4425450;32;20277;-76
2022/11/01 03:11:09;;;;;;;80.80;12.37;;;;;;;9.05;100.00;99288.84;4407479;32;20109;-76
2022/11/01 03:13:42;;;;;;;91.55;14.27;;;;;;;9.03;100.00;99289.88;4420034;32;20112;-76
2022/11/01 03:16:28;;;;;;;144.27;15.65;;;;;;;8.97;100.00;99288.56;4420021;32;20495;-76
2022/11/01 03:19:34;;;;;;;88.47;14.93;;;;;;;8.95;100.00;99277.41;4419925;32;20648;-76
2022/11/01 03:22:10;;;;;;;219.57;18.55;;;;;;;8.98;100.00;99276.34;4389643;32;20520;-76
2022/11/01 03:25:37;;;;;;;314.02;22.55;;;;;;;8.99;100.00;99276.22;4389382;32;20128;-76
2022/11/01 03:28:00;;;;;;;334.05;25.05;;;;;;;8.96;100.00;99281.69;4389226;32;20168;-76
2022/11/01 03:30:29;;;;;;;262.73;22.27;;;;;;;9.00;100.00;99290.94;4389811;32;20161;-76
2022/11/01 03:32:57;;;;;;;358.45;23.95;;;;;;;8.98;100.00;99285.00;4391127;32;20111;-76
2022/11/01 03:35:29;;;;;;;382.55;25.52;;;;;;;9.03;100.00;99288.09;4391346;32;20487;-76
2022/11/01 03:38:01;;;;;;;300.83;21.45;;;;;;;9.05;100.00;99282.75;4391382;32;20291;-76
2022/11/01 03:40:29;;;;;;;180.73;16.95;;;;;;;8.95;100.00;99282.63;4391349;32;20105;-76
2022/11/01 03:43:02;;;;;;;241.02;18.98;;;;;;;8.88;100.00;99284.84;4391148;32;20162;-76
2022/11/01 03:45:31;;;;;;;178.57;17.85;;;;;;;8.91;100.00;99275.13;4398730;32;20181;-76
2022/11/01 03:47:59;;;;;;;198.85;20.95;;;;;;;9.03;100.00;99282.88;4406325;32;20559;-76
2022/11/01 03:50:28;;;;;;;335.38;24.70;;;;;;;8.95;100.00;99287.00;4406297;32;20503;-76
2022/11/01 03:52:55;;;;;;;369.08;22.67;;;;;;;8.92;100.00;99288.09;4406330;32;20149;-76
2022/11/01 03:55:23;;;;;;;388.23;26.48;;;;;;;8.97;100.00;99282.50;4406334;32;20110;-76
2022/11/01 03:57:58;;;;;;;288.05;21.60;;;;;;;9.00;100.00;99272.66;4409880;32;20102;-76
2022/11/01 04:00:28;;;;;;;346.02;22.10;;;;;;;9.01;100.00;99266.50;4470337;32;20143;-76
2022/11/01 04:02:56;;;;;;;387.90;27.27;;;;;;;9.03;100.00;99258.53;4470987;32;20436;-76
2022/11/01 04:05:25;;;;;;;463.67;27.73;;;;;;;9.03;100.00;99261.16;4485880;31;20119;-76
2022/11/01 04:07:52;;;;;;;362.80;30.20;;;;;;;8.93;100.00;99260.97;4479841;31;20137;-76
2022/11/01 04:10:20;;;;;;;463.55;35.60;;;;;;;8.95;100.00;99247.81;4470196;32;20208;-76
2022/11/01 04:12:48;;;;;;;395.35;25.90;;;;;;;8.93;100.00;99255.75;4470334;32;20093;-76
2022/11/01 04:20:57;;;;;;;348.27;23.12;;;;;;;9.08;100.00;99248.56;4470268;32;20106;-76
2022/11/01 04:23:25;;;;;;;417.42;29.95;;;;;;;9.07;100.00;99252.13;4469179;32;20105;-76
2022/11/01 04:25:52;;;;;;;399.42;27.40;;;;;;;9.03;100.00;99256.75;4470111;32;20236;-76
2022/11/01 04:28:19;;;;;;;431.87;33.28;;;;;;;9.08;100.00;99247.72;4470360;32;20130;-76
2022/11/01 04:30:46;;;;;;;305.27;23.75;;;;;;;9.10;100.00;99251.91;4469979;32;20088;-76
2022/11/01 04:33:13;;;;;;;317.85;22.73;;;;;;;9.09;100.00;99259.84;4469817;32;20105;-76
2022/11/01 04:35:41;;;;;;;525.67;35.05;;;;;;;9.13;100.00;99256.91;4470081;32;20097;-76
2022/11/01 04:38:09;;;;;;;314.55;21.20;;;;;;;9.08;100.00;99255.56;4470017;32;20136;-76
2022/11/01 04:40:37;;;;;;;273.13;20.08;;;;;;;9.11;100.00;99253.53;4469899;32;20155;-76
2022/11/01 04:43:04;;;;;;;403.73;27.08;;;;;;;9.14;100.00;99252.50;4469367;32;20109;-76
2022/11/01 04:45:31;;;;;;;311.02;22.27;;;;;;;9.11;100.00;99252.72;4470092;32;20108;-76
2022/11/01 04:48:14;;;;;;;379.23;28.12;;;;;;;9.11;100.00;99253.53;4470099;32;20483;-76
2022/11/01 04:50:42;;;;;;;458.77;34.50;;;;;;;9.02;100.00;99249.88;4470038;32;20202;-76
2022/11/01 04:53:09;;;;;;;415.58;26.50;;;;;;;9.03;100.00;99250.69;4470021;32;20120;-76
2022/11/01 04:55:36;;;;;;;349.25;21.85;;;;;;;9.05;100.00;99254.87;4470147;32;20172;-76
2022/11/01 04:58:05;;;;;;;551.35;45.17;;;;;;;9.11;100.00;99263.19;4469798;32;20092;-76
2022/11/01 05:00:33;;;;;;;455.80;35.17;;;;;;;9.10;100.00;99259.75;4469864;32;20119;-76
2022/11/01 05:03:05;;;;;;;305.05;27.02;;;;;;;9.05;100.00;99265.31;4471104;32;20128;-76
2022/11/01 05:05:33;;;;;;;300.57;20.73;;;;;;;9.11;100.00;99260.56;4485554;31;20115;-76
2022/11/01 05:08:08;;;;;;;348.40;25.17;;;;;;;9.07;100.00;99259.97;4478747;31;20124;-76
2022/11/01 05:10:41;;;;;;;255.05;23.65;;;;;;;8.99;100.00;99262.31;4469671;32;20092;-76
2022/11/01 05:13:09;;;;;;;427.90;29.05;;;;;;;9.04;100.00;99253.19;4469970;32;20156;-76
2022/11/01 05:15:36;;;;;;;608.22;41.88;;;;;;;8.98;100.00;99247.59;4469669;32;20080;-76
2022/11/01 05:18:09;;;;;;;306.87;22.73;;;;;;;8.91;100.00;99247.22;4469908;32;20096;-76
2022/11/01 05:20:36;;;;;;;332.98;25.35;;;;;;;9.01;100.00;99256.03;4469649;32;20213;-76
2022/11/01 05:23:04;;;;;;;53.05;15.50;;;;;;;8.94;100.00;99252.22;4469725;32;20093;-76
2022/11/01 05:25:32;;;;;;;70.70;16.87;;;;;;;8.94;100.00;99252.22;4469794;32;20121;-76
2022/11/01 05:28:07;;;;;;;68.20;16.42;;;;;;;8.85;100.00;99240.66;4469502;32;20172;-76
2022/11/01 05:30:35;;;;;;;228.27;19.67;;;;;;;8.87;100.00;99251.84;4469596;32;20103;-76
2022/11/01 05:33:03;;;;;;;339.58;25.20;;;;;;;8.87;100.00;99251.00;4469485;32;20145;-76
2022/11/01 05:35:32;;;;;;;545.65;41.97;;;;;;;8.94;100.00;99244.38;4469539;32;20116;-76
2022/11/01 05:38:00;;;;;;;593.05;42.30;;;;;;;8.94;100.00;99244.38;4469852;32;20089;-76
2022/11/01 05:40:28;;;;;;;589.20;43.08;;;;;;;8.92;100.00;99250.66;4469509;32;20454;-76
2022/11/01 05:42:55;;;;;;;583.22;37.85;;;;;;;8.92;100.00;99261.09;4469804;32;20129;-76
2022/11/01 05:45:23;;;;;;;683.70;56.28;;;;;;;8.87;100.00;99261.44;4469648;32;20179;-76
2022/11/01 05:47:50;;;;;;;602.58;45.95;;;;;;;8.92;100.00;99261.94;4469727;32;20088;-76
2022/11/01 05:50:17;;;;;;;669.67;47.90;;;;;;;8.95;100.00;99253.87;4469608;32;20494;-76
2022/11/01 05:52:44;;;;;;;679.83;55.35;;;;;;;8.93;100.00;99250.53;4469222;32;20097;-76
2022/11/01 05:55:11;;;;;;;521.87;39.33;;;;;;;8.90;100.00;99250.75;4469545;32;20104;-76
2022/11/01 05:57:38;;;;;;;726.80;49.42;;;;;;;8.97;100.00;99244.13;4469577;32;20089;-76
2022/11/01 06:00:06;;;;;;;593.75;49.45;;;;;;;8.94;100.00;99252.22;4469652;32;20116;-76
2022/11/01 06:02:37;;;;;;;457.50;31.85;;;;;;;8.97;100.00;99262.44;4469462;32;20089;-76
2022/11/01 06:05:05;;;;;;;583.85;43.00;;;;;;;9.00;100.00;99256.97;4484021;32;20100;-76
2022/11/01 06:07:35;;;;;;;625.92;45.83;;;;;;;9.09;100.00;99259.84;4481177;31;20540;-76
2022/11/01 06:10:03;;;;;;;508.30;36.22;;;;;;;9.05;100.00;99270.53;4469319;32;20161;-76
2022/11/01 06:12:31;;;;;;;524.00;43.90;;;;;;;9.05;100.00;99262.72;4469336;32;20109;-76
2022/11/01 06:14:58;;;;;;;576.35;40.15;;;;;;;9.04;100.00;99268.03;4469815;32;20168;-76
2022/11/01 06:17:25;;;;;;;646.33;47.85;;;;;;;8.98;100.00;99266.72;4469462;32;20209;-76
2022/11/01 06:19:52;;;;;;;397.20;25.92;;;;;;;8.95;100.00;99271.31;4469409;32;20093;-76
2022/11/01 06:22:19;;;;;;;291.12;25.05;;;;;;;9.00;100.00;99264.81;4469446;32;20168;-76
2022/11/01 06:24:47;;;;;;;389.17;27.83;;;;;;;8.85;100.00;99258.94;4469658;32;20134;-76
2022/11/01 06:27:14;;;;;;;377.60;29.48;;;;;;;8.83;100.00;99266.06;4462599;32;210985;-76
2022/11/01 06:29:42;;;;;;;340.98;25.83;;;;;;;8.87;100.00;99261.44;4469307;32;20102;-76
2022/11/01 06:32:08;;;;;;;445.27;34.25;;;;;;;8.92;100.00;99272.41;4469122;32;20085;-76
2022/11/01 06:34:36;;;;;;;371.17;25.83;;;;;;;8.86;100.00;99267.63;4469164;32;20221;-76
2022/11/01 06:37:09;;;;;;;407.45;34.58;;;;;;;8.91;100.00;99267.28;4469070;32;20088;-76
2022/11/01 06:39:37;;;;;;;370.52;25.37;;;;;;;8.84;100.00;99274.72;4469114;32;20120;-76
2022/11/01 06:42:04;;;;;;;356.15;25.62;;;;;;;8.90;100.00;99276.87;4469202;32;20135;-76
2022/11/01 06:44:31;;;;;;;403.02;29.70;;;;;;;8.98;100.00;99278.97;4467764;32;20120;-76
2022/11/01 06:46:58;;;;;;;346.77;27.52;;;;;;;8.92;100.00;99279.38;4469095;32;20089;-76
2022/11/01 06:49:25;;;;;;;422.80;28.60;;;;;;;8.94;100.00;99280.12;4469085;32;20119;-76
2022/11/01 06:51:52;;;;;;;524.03;36.92;;;;;;;9.06;100.00;99285.25;4468958;32;20143;-76
2022/11/01 06:54:20;;;;;;;476.73;30.65;;;;;;;9.03;100.00;99277.66;4468860;32;20543;-76
2022/11/01 06:56:47;;;;;;;509.70;36.47;;;;;;;9.01;100.00;99274.31;4468893;32;20092;-76
2022/11/01 06:59:15;;;;;;;487.33;34.88;;;;;;;8.99;100.00;99276.22;4469187;32;20596;-76
2022/11/01 07:01:43;;;;;;;512.58;39.65;;;;;;;9.02;100.00;99281.22;4468945;32;20415;-76
2022/11/01 07:04:10;;;;;;;394.67;28.00;;;;;;;9.01;100.00;99290.00;4477388;32;20104;-76
2022/11/01 07:06:43;;;;;;;345.73;24.45;;;;;;;9.03;100.00;99284.66;4483706;32;20083;-76
2022/11/01 07:09:10;;;;;;;143.85;18.08;;;;;;;9.09;100.00;99286.81;4469957;31;20112;-76
2022/11/01 07:11:37;;;;;;;146.68;17.67;;;;;;;8.99;100.00;99289.31;4468767;32;20101;-76
2022/11/01 07:14:04;;;;;;;229.27;19.75;;;;;;;8.93;100.00;99294.13;4468682;32;20113;-76
2022/11/01 07:16:31;;;;;;;168.37;20.23;;;;;;;8.92;100.00;99295.91;4468724;32;20089;-76
2022/11/01 07:18:58;;;;;;;152.55;19.70;;;;;;;8.95;100.00;99293.09;4468703;32;20510;-76
2022/11/01 07:21:26;;;;;;;239.82;21.65;;;;;;;8.87;100.00;99288.44;4469020;32;20121;-76
2022/11/01 07:23:53;;;;;;;156.27;22.77;;;;;;;8.92;100.00;99293.31;4468765;32;20250;-76
2022/11/01 07:26:20;;;;;;;227.13;19.83;;;;;;;9.05;100.00;99281.00;4468452;32;20084;-76
2022/11/01 07:28:47;;;;;;;195.48;19.83;;;;;;;8.97;100.00;99288.56;4468469;32;20469;-76
2022/11/01 07:31:16;;;;;;;305.25;28.83;;;;;;;8.92;100.00;99293.31;4468358;32;20172;-76
2022/11/01 07:33:44;;;;;;;219.87;19.15;;;;;;;8.96;100.00;99297.38;4468589;32;20164;-76
2022/11/01 07:36:11;;;;;;;218.82;19.83;;;;;;;9.09;100.00;99293.84;4468390;32;20114;-76
2022/11/01 07:38:38;;;;;;;274.10;24.15;;;;;;;9.05;100.00;99295.81;4468329;32;20122;-76
2022/11/01 07:41:05;;;;;;;252.15;22.05;;;;;;;8.94;100.00;99298.41;4468596;32;20101;-76
2022/11/01 07:43:34;;;;;;;341.40;24.55;;;;;;;8.97;100.00;99303.41;4468457;32;20120;-76
2022/11/01 07:46:04;;;;;;;231.82;20.23;;;;;;;9.05;100.00;99298.44;4468303;32;20076;-76
2022/11/01 07:48:35;;;;;;;280.85;23.85;;;;;;;9.16;100.00;99308.09;4468570;32;20498;-76
2022/11/01 07:51:04;;;;;;;347.15;27.50;;;;;;;9.18;100.00;99296.59;4467926;32;20085;-76
2022/11/01 07:53:32;;;;;;;225.73;20.73;;;;;;;9.04;100.00;99300.22;4468320;32;20160;-76
2022/11/01 07:56:00;;;;;;;313.27;22.17;;;;;;;9.14;100.00;99300.37;4467977;32;20115;-76
2022/11/01 07:58:28;;;;;;;411.80;26.65;;;;;;;9.23;100.00;99302.31;4468084;32;20113;-76
2022/11/01 08:00:55;;;;;;;312.35;25.12;;;;;;;9.26;100.00;99296.00;4467965;32;20389;-76
2022/11/01 08:03:22;;;;;;;311.27;23.35;;;;;;;9.28;100.00;99296.75;4471733;32;20143;-76
2022/11/01 08:05:50;;;;;;;278.88;24.27;;;;;;;9.30;100.00;99294.84;4483490;31;20092;-76
2022/11/01 08:08:17;;;;;;;346.40;25.37;;;;;;;9.28;100.00;99293.28;4474892;31;20525;-76
2022/11/01 08:10:44;;;;;;;302.00;22.40;;;;;;;9.37;100.00;99293.41;4467664;32;20109;-76
2022/11/01 08:13:22;;;;;;;267.62;27.58;;;;;;;9.31;100.00;99293.03;4468165;32;20446;-76
2022/11/01 08:15:51;;;;;;;168.60;17.75;;;;;;;9.26;100.00;99282.09;4467684;32;20202;-76
2022/11/01 08:18:23;;;;;;;268.30;24.98;;;;;;;9.34;100.00;99293.66;4470146;32;20117;-76
2022/11/01 08:20:50;;;;;;;149.38;17.65;;;;;;;9.32;100.00;99290.31;4470015;32;20557;-76
2022/11/01 08:23:18;;;;;;;301.62;21.20;;;;;;;9.43;100.00;99286.06;4470160;32;20092;-76
2022/11/01 08:25:45;;;;;;;270.52;23.50;;;;;;;9.41;100.00;99286.16;4470210;32;20401;-76
2022/11/01 08:28:15;;;;;;;336.67;26.75;;;;;;;9.37;100.00;99279.50;4470210;32;20108;-76
2022/11/01 08:30:45;;;;;;;325.95;22.62;;;;;;;9.34;100.00;99285.81;4470258;32;20089;-76
2022/11/01 08:33:12;;;;;;;314.52;23.67;;;;;;;9.27;100.00;99289.00;4469990;32;20100;-76
2022/11/01 08:35:40;;;;;;;266.52;22.52;;;;;;;9.30;100.00;99289.59;4470045;32;20093;-76
2022/11/01 08:38:15;;;;;;;379.05;26.37;;;;;;;9.37;100.00;99295.19;4469915;32;20522;-76
2022/11/01 08:40:42;;;;;;;379.38;29.02;;;;;;;9.50;100.00;99298.53;4469902;32;20101;-76
2022/11/01 08:43:09;;;;;;;221.35;20.23;;;;;;;9.31;100.00;99293.03;4470008;32;20115;-76
2022/11/01 08:45:36;;;;;;;344.80;26.65;;;;;;;9.52;100.00;99287.97;4470058;32;20096;-76
2022/11/01 08:48:04;;;;;;;378.12;29.17;;;;;;;9.72;100.00;99286.41;4469978;32;20127;-76
2022/11/01 08:50:35;;;;;;;433.33;30.20;;;;;;;9.75;100.00;99292.25;4469834;32;20481;-76
2022/11/01 08:53:12;;;;;;;551.92;42.92;;;;;;;9.59;100.00;99286.53;4469940;32;20273;-76
2022/11/01 08:55:40;;;;;;;378.27;24.10;;;;;;;9.49;100.00;99289.06;4469919;32;20102;-76
2022/11/01 08:58:08;;;;;;;561.97;42.45;;;;;;;9.45;100.00;99291.97;4469942;32;20097;-76
2022/11/01 09:00:35;;;;;;;418.50;30.27;;;;;;;9.36;100.00;99293.53;4469838;32;20564;-76
2022/11/01 09:03:03;;;;;;;313.80;22.50;;;;;;;9.48;100.00;99286.50;4471178;32;20093;-76
2022/11/01 09:05:30;;;;;;;288.90;20.98;;;;;;;9.56;100.00;99292.84;4485434;31;20087;-76
2022/11/01 09:07:58;;;;;;;440.05;36.70;;;;;;;9.66;100.00;99290.38;4478896;32;20160;-76
2022/11/01 09:10:28;;;;;;;524.40;37.70;;;;;;;9.65;100.00;99286.06;4469998;32;20096;-76
2022/11/01 09:12:56;;;;;;;401.70;30.33;;;;;;;9.50;100.00;99285.47;4469780;32;20187;-76
2022/11/01 09:15:23;;;;;;;334.20;26.55;;;;;;;9.52;100.00;99278.34;4469820;32;20096;-76
2022/11/01 09:17:51;;;;;;;418.05;30.08;;;;;;;9.49;100.00;99278.59;4469715;32;20109;-76
2022/11/01 09:20:19;;;;;;;392.70;27.55;;;;;;;9.53;100.00;99274.75;4469854;32;20125;-76
2022/11/01 09:22:50;;;;;;;308.65;22.30;;;;;;;9.55;100.00;99277.25;4470016;32;20157;-76
2022/11/01 09:25:17;;;;;;;222.23;20.02;;;;;;;9.68;100.00;99277.16;4468840;32;20114;-76
2022/11/01 09:27:44;;;;;;;301.92;23.00;;;;;;;9.72;100.00;99274.19;4468945;32;20097;-76
2022/11/01 09:30:11;;;;;;;335.73;23.60;;;;;;;9.83;100.00;99277.75;4469573;32;20491;-76
2022/11/01 09:32:38;;;;;;;376.25;29.63;;;;;;;9.81;100.00;99279.66;4469426;32;20097;-76
2022/11/01 09:35:06;;;;;;;316.58;22.55;;;;;;;9.75;100.00;99275.75;4469711;32;20112;-76
2022/11/01 09:37:33;;;;;;;362.92;23.25;;;;;;;9.79;100.00;99274.53;4469504;32;20502;-76
2022/11/01 09:40:02;;;;;;;370.05;24.60;;;;;;;9.96;100.00;99283.66;4469732;32;20104;-76
2022/11/01 09:42:33;;;;;;;203.65;20.02;;;;;;;9.99;100.00;99283.44;4469703;32;20093;-76
2022/11/01 09:45:08;;;;;;;377.60;30.88;;;;;;;9.87;100.00;99279.16;4468830;32;20135;-76
2022/11/01 09:47:36;;;;;;;207.75;21.37;;;;;;;9.65;100.00;99272.16;4469960;32;20124;-76
2022/11/01 09:50:13;;;;;;;200.82;21.23;;;;;;;9.72;100.00;99274.19;4469626;32;20518;-76
2022/11/01 09:52:40;;;;;;;89.03;16.62;;;;;;;9.84;100.00;99279.41;4469513;32;20157;-76
2022/11/01 09:55:14;;;;;;;86.65;17.02;;;;;;;9.93;100.00;99271.69;4469638;32;20421;-76
2022/11/01 09:57:45;;;;;;;156.73;16.92;;;;;;;9.99;100.00;99275.56;4468453;32;20096;-76
2022/11/01 10:00:16;;;;;;;133.05;16.50;;;;;;;9.87;100.00;99281.78;4469450;32;20108;-76
2022/11/01 10:03:08;;;;;;;205.12;18.05;;;;;;;9.99;100.00;99280.81;4469400;32;20131;-76
2022/11/01 10:06:05;;;;;;;160.40;17.65;;;;;;;10.01;100.00;99278.94;4452684;32;20120;-76
2022/11/01 10:08:35;;;;;;;143.80;16.45;;;;;;;9.98;100.00;99278.31;4468057;32;20100;-76
2022/11/01 10:11:21;;;;;;;246.68;19.35;;;;;;;9.97;100.00;99271.44;4469279;32;20136;-76
2022/11/01 10:13:57;;;;;;;288.52;20.60;;;;;;;9.97;100.00;99267.03;4469390;32;20111;-76
2022/11/01 10:16:48;;;;;;;177.10;16.50;;;;;;;9.85;100.00;99268.81;4468341;32;20548;-76
2022/11/01 10:19:17;;;;;;;225.25;18.42;;;;;;;9.99;100.00;99269.53;4469408;32;20468;-76
2022/11/01 10:21:49;;;;;;;288.35;22.87;;;;;;;9.99;100.00;99259.06;4469286;32;20716;-76
2022/11/01 10:24:19;;;;;;;368.70;26.95;;;;;;;9.83;100.00;99257.66;4469302;32;20093;-76
2022/11/01 10:26:50;;;;;;;342.17;28.77;;;;;;;9.76;100.00;99262.53;4469285;32;20156;-75
2022/11/01 10:29:27;;;;;;;261.20;22.23;;;;;;;9.72;100.00;99248.03;4467908;32;20201;-76
2022/11/01 10:31:55;;;;;;;516.85;39.60;;;;;;;9.90;100.00;99260.59;4467906;32;20119;-76
2022/11/01 10:34:34;;;;;;;288.73;23.98;;;;;;;9.97;100.00;99261.78;4469448;32;20101;-76
2022/11/01 10:37:26;;;;;;;301.17;24.98;;;;;;;9.96;100.00;99257.50;4468031;32;20084;-76
2022/11/01 10:39:56;;;;;;;290.77;24.23;;;;;;;10.13;100.00;99264.84;4469025;32;20460;-76
2022/11/01 10:42:28;;;;;;;267.33;26.65;;;;;;;10.27;100.00;99268.16;4468056;32;20115;-76
2022/11/01 10:45:02;;;;;;;130.23;19.87;;;;;;;10.23;100.00;99267.56;4469338;32;20176;-76
2022/11/01 10:47:29;;;;;;;42.70;16.57;;;;;;;10.24;100.00;99263.19;4467790;32;20097;-76
2022/11/01 10:50:09;;;;;;;54.60;16.62;;;;;;;10.24;100.00;99263.19;4468991;32;20192;-76
2022/11/01 10:52:47;;;;;;;48.55;15.40;;;;;;;10.22;100.00;99262.44;4468114;32;20123;-76
2022/11/01 10:55:18;;;;;;;65.78;17.85;;;;;;;10.35;100.00;99259.72;4468988;32;20128;-76
2022/11/01 10:57:57;;;;;;;48.05;17.35;;;;;;;10.29;100.00;99261.87;4467930;32;20093;-76
2022/11/01 11:00:24;;;;;;;49.83;17.62;;;;;;;10.21;100.00;99253.78;4467613;32;20076;-76
2022/11/01 11:02:57;;;;;;;46.35;18.42;;;;;;;10.27;100.00;99257.69;4467550;32;20468;-76
2022/11/01 11:05:28;;;;;;;45.73;16.90;;;;;;;10.52;100.00;99259.19;4483192;32;20226;-76
2022/11/01 11:07:56;;;;;;;63.08;18.08;;;;;;;10.71;100.00;99249.84;4470964;32;20122;-76
2022/11/01 11:10:28;;;;;;;95.22;19.65;;;;;;;10.55;100.00;99256.34;4453505;32;20127;-76
2022/11/01 11:12:59;;;;;;;53.40;18.48;;;;;;;10.53;100.00;99249.56;4453481;32;20101;-76
2022/11/01 11:15:52;;;;;;;61.88;18.45;;;;;;;10.59;100.00;99249.03;4453238;32;20085;-76
2022/11/01 11:18:26;;;;;;;49.70;17.77;;;;;;;10.68;100.00;99244.84;4449495;32;20601;-76
2022/11/01 11:20:59;;;;;;;50.88;17.77;;;;;;;10.59;100.00;99241.19;4453054;32;20593;-76
2022/11/01 11:23:28;;;;;;;49.28;17.30;;;;;;;10.59;100.00;99249.03;4451941;32;20109;-76
2022/11/01 11:26:12;;;;;;;43.87;16.95;;;;;;;10.62;100.00;99235.69;4451704;32;20169;-76
2022/11/01 11:28:43;;;;;;;49.80;17.67;;;;;;;10.68;100.00;99237.81;4451716;32;20097;-76
2022/11/01 11:31:18;;;;;;;57.50;18.55;;;;;;;10.76;100.00;99242.41;4451634;32;20073;-76